Time;durP1;ratioP1;P1;durP2;ratioP2;P2;SDS_P1;SDS_P2;PMS_P1;PMS_P2;Temp;Humidity;BMP_temperature;BMP_pressure;BME280_temperature;BME280_humidity;BME280_pressure;Samples;Min_cycle;Max_cycle;Signal;HPM_P1;HPM_P2
2021/12/30 00:01:11;;;;;;;67.68;50.58;;;18.50;70.60;;;;;;4950479;28;86640;-69
2021/12/30 00:03:39;;;;;;;65.40;50.05;;;18.40;70.00;;;;;;4974661;28;87852;-69
2021/12/30 00:06:06;;;;;;;65.35;49.85;;;18.40;69.80;;;;;;4967846;28;87571;-69
2021/12/30 00:08:32;;;;;;;66.95;50.67;;;18.40;69.80;;;;;;4975607;28;86435;-69
2021/12/30 00:10:57;;;;;;;64.15;49.65;;;18.40;69.80;;;;;;4957824;28;86770;-69
2021/12/30 00:13:23;;;;;;;68.43;50.38;;;18.40;69.80;;;;;;4976592;28;87421;-69
2021/12/30 00:15:50;;;;;;;66.53;50.35;;;18.40;69.80;;;;;;4981039;28;86020;-69
2021/12/30 00:18:16;;;;;;;67.93;50.30;;;18.40;69.90;;;;;;4979303;28;87228;-69
2021/12/30 00:20:41;;;;;;;66.85;50.25;;;18.40;69.70;;;;;;4983025;28;86675;-69
2021/12/30 00:23:08;;;;;;;67.82;50.17;;;18.40;69.80;;;;;;4978551;28;86453;-69
2021/12/30 00:25:40;;;;;;;69.15;50.45;;;18.40;69.70;;;;;;4976958;28;86078;-69
2021/12/30 00:28:07;;;;;;;69.15;50.22;;;18.40;69.80;;;;;;4972192;28;88574;-69
2021/12/30 00:30:32;;;;;;;67.55;50.25;;;18.40;69.70;;;;;;4975205;28;85614;-69
2021/12/30 00:32:58;;;;;;;64.68;49.60;;;18.40;69.70;;;;;;4982330;28;87713;-69
2021/12/30 00:35:24;;;;;;;66.70;50.30;;;18.40;69.70;;;;;;4975202;28;87675;-69
2021/12/30 00:37:49;;;;;;;64.47;49.72;;;18.30;69.60;;;;;;4972406;28;86388;-69
2021/12/30 00:40:15;;;;;;;64.45;49.63;;;18.40;69.70;;;;;;4977999;28;85971;-69
2021/12/30 00:42:41;;;;;;;64.15;49.75;;;18.40;69.60;;;;;;4957459;28;86174;-69
2021/12/30 00:45:07;;;;;;;65.20;49.88;;;18.40;69.60;;;;;;4978284;28;90436;-69
2021/12/30 00:47:33;;;;;;;65.93;50.08;;;18.30;69.60;;;;;;4969325;28;88927;-69
2021/12/30 00:50:11;;;;;;;63.60;49.35;;;18.30;69.50;;;;;;3895876;28;10089971;-69
2021/12/30 00:52:37;;;;;;;64.88;49.75;;;18.30;69.50;;;;;;1699859;27;10088084;-69
2021/12/30 00:55:04;;;;;;;64.88;49.53;;;18.40;69.50;;;;;;5012604;27;85305;-69
2021/12/30 00:57:29;;;;;;;63.75;49.38;;;18.30;69.50;;;;;;5013076;27;86393;-69
2021/12/30 00:59:55;;;;;;;65.82;49.83;;;18.30;69.50;;;;;;5013317;27;86025;-69
2021/12/30 01:02:21;;;;;;;65.75;49.50;;;18.30;69.50;;;;;;4987027;27;87768;-70
2021/12/30 01:04:46;;;;;;;63.92;49.42;;;18.30;69.50;;;;;;5012836;27;86850;-68
2021/12/30 01:07:12;;;;;;;65.03;49.72;;;18.40;69.60;;;;;;5006841;27;85713;-69
2021/12/30 01:09:38;;;;;;;64.40;49.47;;;18.30;69.40;;;;;;5004752;27;85868;-69
2021/12/30 01:12:04;;;;;;;65.28;49.22;;;18.30;69.50;;;;;;5015031;27;87549;-69
2021/12/30 01:14:31;;;;;;;62.92;49.33;;;18.30;69.50;;;;;;5011117;27;87539;-69
2021/12/30 01:17:11;;;;;;;64.35;49.67;;;18.30;69.50;;;;;;5013001;27;85418;-69
2021/12/30 01:19:42;;;;;;;64.63;49.50;;;18.30;69.50;;;;;;5011608;27;87401;-69
2021/12/30 01:22:27;;;;;;;63.42;49.50;;;18.40;69.60;;;;;;5011775;27;86007;-69
2021/12/30 01:24:53;;;;;;;64.13;49.42;;;18.40;69.50;;;;;;5002952;27;89561;-69
2021/12/30 01:27:20;;;;;;;63.88;49.50;;;18.30;69.50;;;;;;5011204;27;85103;-69
2021/12/30 01:29:48;;;;;;;65.50;49.55;;;18.30;69.50;;;;;;5011706;27;88991;-69
2021/12/30 01:32:14;;;;;;;62.83;49.05;;;18.30;69.50;;;;;;5003401;27;87204;-68
2021/12/30 01:34:40;;;;;;;64.35;49.50;;;18.30;69.40;;;;;;5008500;27;86610;-69
2021/12/30 01:37:06;;;;;;;64.70;49.67;;;18.30;69.30;;;;;;5004205;27;86141;-70
2021/12/30 01:39:36;;;;;;;65.38;49.45;;;18.30;69.40;;;;;;5011855;27;85658;-69
2021/12/30 01:42:04;;;;;;;63.80;49.50;;;18.30;69.40;;;;;;4999915;27;86970;-69
2021/12/30 01:44:29;;;;;;;63.28;49.38;;;18.30;69.50;;;;;;5013378;27;91464;-69
2021/12/30 01:46:56;;;;;;;64.22;49.50;;;18.30;69.40;;;;;;5014639;27;89947;-69
2021/12/30 01:49:23;;;;;;;63.92;49.17;;;18.30;69.40;;;;;;5014889;27;87781;-68
2021/12/30 01:51:50;;;;;;;65.63;49.35;;;18.30;69.40;;;;;;5016343;27;86556;-68
2021/12/30 01:54:16;;;;;;;63.55;49.60;;;18.30;69.50;;;;;;5009569;27;89492;-69
2021/12/30 01:56:42;;;;;;;64.10;49.42;;;18.30;69.50;;;;;;5004695;27;85632;-69
2021/12/30 01:59:08;;;;;;;63.63;49.33;;;18.30;69.40;;;;;;5011490;27;85225;-69
2021/12/30 02:01:34;;;;;;;64.25;49.13;;;18.30;69.40;;;;;;5014243;27;85458;-69
2021/12/30 02:04:00;;;;;;;63.38;49.15;;;18.30;69.40;;;;;;5008793;27;85670;-69
2021/12/30 02:06:27;;;;;;;63.17;49.30;;;18.30;69.50;;;;;;5004965;27;86064;-69
2021/12/30 02:08:53;;;;;;;63.40;49.28;;;18.30;69.40;;;;;;5011176;27;86587;-69
2021/12/30 02:11:22;;;;;;;64.05;49.35;;;18.30;69.50;;;;;;5010050;27;87158;-69
2021/12/30 02:13:49;;;;;;;63.72;49.47;;;18.20;69.40;;;;;;5008944;27;85920;-69
2021/12/30 02:16:17;;;;;;;62.75;49.08;;;18.30;69.50;;;;;;5012151;27;88432;-69
2021/12/30 02:18:42;;;;;;;63.42;49.25;;;18.30;69.50;;;;;;5015160;27;86273;-69
2021/12/30 02:21:08;;;;;;;63.40;49.15;;;18.30;69.30;;;;;;5011075;27;86220;-69
2021/12/30 02:23:36;;;;;;;63.63;49.00;;;18.30;69.30;;;;;;5009028;27;85698;-69
2021/12/30 02:26:06;;;;;;;63.75;49.05;;;18.30;69.30;;;;;;5006669;27;85958;-69
2021/12/30 02:28:33;;;;;;;64.25;49.17;;;18.30;69.40;;;;;;5007506;27;86650;-69
2021/12/30 02:31:03;;;;;;;63.85;49.22;;;18.30;69.40;;;;;;5009419;27;85976;-69
2021/12/30 02:33:29;;;;;;;63.72;49.15;;;18.20;69.40;;;;;;5001277;27;86334;-69
2021/12/30 02:35:55;;;;;;;63.40;49.15;;;18.30;69.40;;;;;;5002343;27;85392;-69
2021/12/30 02:38:22;;;;;;;65.03;49.20;;;18.30;69.50;;;;;;5006624;27;87101;-69
2021/12/30 02:40:53;;;;;;;62.55;49.05;;;18.20;69.50;;;;;;5002134;27;86046;-69
2021/12/30 02:43:25;;;;;;;62.08;48.92;;;18.20;69.40;;;;;;4987732;27;85893;-69
2021/12/30 02:45:51;;;;;;;62.42;48.83;;;18.20;69.40;;;;;;5004109;27;85940;-69
2021/12/30 02:48:23;;;;;;;62.72;49.03;;;18.30;69.40;;;;;;4997829;27;91384;-69
2021/12/30 02:50:51;;;;;;;62.50;48.92;;;18.30;69.40;;;;;;5000903;27;85519;-69
2021/12/30 02:53:17;;;;;;;62.50;48.95;;;18.30;69.40;;;;;;5002477;27;85767;-69
2021/12/30 02:55:44;;;;;;;63.92;49.17;;;18.20;69.40;;;;;;5009135;27;92190;-69
2021/12/30 02:58:11;;;;;;;62.75;48.75;;;18.30;69.50;;;;;;5010218;27;85870;-69
2021/12/30 03:00:37;;;;;;;62.78;49.10;;;18.30;69.40;;;;;;5000917;27;85786;-68
2021/12/30 03:03:04;;;;;;;62.97;49.22;;;18.20;69.30;;;;;;4993624;27;87053;-69
2021/12/30 03:05:30;;;;;;;63.85;49.03;;;18.30;69.50;;;;;;5006647;27;87273;-69
2021/12/30 03:07:55;;;;;;;63.03;49.00;;;18.20;69.30;;;;;;5008172;27;86572;-68
2021/12/30 03:10:28;;;;;;;62.65;48.95;;;18.30;69.40;;;;;;5000442;27;86632;-69
2021/12/30 03:13:03;;;;;;;61.90;48.90;;;18.30;69.40;;;;;;4992126;28;85478;-69
2021/12/30 03:15:29;;;;;;;62.17;48.63;;;18.30;70.10;;;;;;5000917;27;86157;-69
2021/12/30 03:17:55;;;;;;;62.45;48.92;;;18.30;69.40;;;;;;4995349;27;86800;-69
2021/12/30 03:20:20;;;;;;;62.08;48.72;;;18.30;69.40;;;;;;5009589;27;86554;-69
2021/12/30 03:22:46;;;;;;;62.17;48.65;;;18.20;69.40;;;;;;5007365;27;85563;-69
2021/12/30 03:25:14;;;;;;;63.13;49.05;;;18.20;69.30;;;;;;5005318;27;85826;-69
2021/12/30 03:27:40;;;;;;;61.97;48.58;;;18.30;69.40;;;;;;4988670;28;92600;-69
2021/12/30 03:30:11;;;;;;;61.97;48.63;;;18.30;69.40;;;;;;4989020;28;91047;-69
2021/12/30 03:32:36;;;;;;;62.58;49.10;;;18.20;69.40;;;;;;4990797;28;89354;-69
2021/12/30 03:35:04;;;;;;;62.20;48.80;;;18.20;69.50;;;;;;4990077;28;88843;-69
2021/12/30 03:37:29;;;;;;;62.42;48.75;;;18.20;69.40;;;;;;4974296;28;85179;-69
2021/12/30 03:39:55;;;;;;;63.30;48.85;;;18.30;69.50;;;;;;4990573;28;87013;-68
2021/12/30 03:42:21;;;;;;;62.17;49.03;;;18.20;69.40;;;;;;4979656;27;87202;-69
2021/12/30 03:44:46;;;;;;;62.72;48.75;;;18.20;69.40;;;;;;4993571;28;86010;-69
2021/12/30 03:47:16;;;;;;;62.30;48.80;;;18.20;69.40;;;;;;4990620;28;86949;-69
2021/12/30 03:49:46;;;;;;;62.58;48.97;;;18.20;69.40;;;;;;4993860;28;85492;-70
2021/12/30 03:52:19;;;;;;;61.90;48.70;;;18.20;69.40;;;;;;4999969;28;86422;-69
2021/12/30 03:54:45;;;;;;;61.50;48.53;;;18.20;69.50;;;;;;4985848;28;86766;-69
2021/12/30 03:57:11;;;;;;;62.25;48.78;;;18.30;69.40;;;;;;4985033;28;86167;-69
2021/12/30 03:59:36;;;;;;;62.75;48.88;;;18.30;69.40;;;;;;4970032;28;86410;-69
2021/12/30 04:02:03;;;;;;;61.92;48.72;;;18.30;69.40;;;;;;4996615;28;85176;-69
2021/12/30 04:04:29;;;;;;;61.90;48.90;;;18.20;69.40;;;;;;4998285;28;86184;-69
2021/12/30 04:06:54;;;;;;;63.65;49.03;;;18.30;69.40;;;;;;4971833;28;87590;-69
2021/12/30 04:09:20;;;;;;;62.38;48.83;;;18.30;69.60;;;;;;4976022;28;88610;-69
2021/12/30 04:11:46;;;;;;;62.08;48.75;;;18.20;69.40;;;;;;4988910;28;87121;-69
2021/12/30 04:14:11;;;;;;;61.95;48.70;;;18.20;69.50;;;;;;4989050;28;86683;-69
2021/12/30 04:16:37;;;;;;;61.90;48.55;;;18.20;69.50;;;;;;4990408;28;85677;-68
2021/12/30 04:19:05;;;;;;;62.92;48.83;;;18.20;69.50;;;;;;4986720;28;86204;-69
2021/12/30 04:21:31;;;;;;;62.45;48.80;;;18.20;69.60;;;;;;4999221;28;96119;-69
2021/12/30 04:23:57;;;;;;;62.70;48.95;;;18.20;69.50;;;;;;4981831;28;90907;-69
2021/12/30 04:26:23;;;;;;;62.53;48.75;;;18.20;69.50;;;;;;4993543;28;89933;-69
2021/12/30 04:28:49;;;;;;;62.13;48.83;;;18.20;69.50;;;;;;5003156;27;91955;-69
2021/12/30 04:31:15;;;;;;;63.03;48.92;;;18.20;69.60;;;;;;5007558;27;96207;-69
2021/12/30 04:33:41;;;;;;;62.47;48.75;;;18.20;69.60;;;;;;5013159;27;91872;-69
2021/12/30 04:36:07;;;;;;;61.70;48.65;;;18.20;69.50;;;;;;5011867;27;90899;-69
2021/12/30 04:38:33;;;;;;;62.10;48.88;;;18.20;69.60;;;;;;5012644;27;91923;-69
2021/12/30 04:41:00;;;;;;;62.10;48.58;;;18.20;69.60;;;;;;4991256;27;90011;-69
2021/12/30 04:43:26;;;;;;;62.53;48.78;;;18.20;69.60;;;;;;5003646;27;90849;-69
2021/12/30 04:45:52;;;;;;;62.95;48.80;;;18.20;69.70;;;;;;4986954;27;91762;-69
2021/12/30 04:48:18;;;;;;;62.28;48.72;;;18.20;69.60;;;;;;5008907;27;92727;-69
2021/12/30 04:50:45;;;;;;;62.10;48.58;;;18.20;69.60;;;;;;5008541;27;89787;-69
2021/12/30 04:53:12;;;;;;;61.85;48.72;;;18.20;69.70;;;;;;5005334;27;92665;-69
2021/12/30 04:55:37;;;;;;;62.42;48.58;;;18.20;69.60;;;;;;5010071;27;92489;-69
2021/12/30 04:58:04;;;;;;;61.72;48.55;;;18.20;69.70;;;;;;5011858;27;90164;-69
2021/12/30 05:00:32;;;;;;;61.35;48.38;;;18.20;69.70;;;;;;5014560;27;94198;-69
2021/12/30 05:03:08;;;;;;;61.70;48.63;;;18.20;69.70;;;;;;5014620;27;89819;-69
2021/12/30 05:05:49;;;;;;;61.92;48.65;;;18.20;69.70;;;;;;5013449;27;96190;-69
2021/12/30 05:08:17;;;;;;;61.67;48.53;;;18.20;69.70;;;;;;5005531;27;90949;-69
2021/12/30 05:10:43;;;;;;;62.28;48.92;;;18.20;69.70;;;;;;4989954;27;95768;-69
2021/12/30 05:13:09;;;;;;;61.67;48.47;;;18.20;69.70;;;;;;5012597;27;89273;-69
2021/12/30 05:15:36;;;;;;;62.13;48.55;;;18.20;69.80;;;;;;5007970;27;91600;-69
2021/12/30 05:18:03;;;;;;;61.83;48.63;;;18.20;69.70;;;;;;5007201;27;90963;-69
2021/12/30 05:20:28;;;;;;;62.03;48.65;;;18.20;69.70;;;;;;5015223;27;91447;-69
2021/12/30 05:22:54;;;;;;;61.85;48.60;;;18.20;69.90;;;;;;5012440;27;89823;-69
2021/12/30 05:25:20;;;;;;;61.60;48.70;;;18.20;69.80;;;;;;4991837;27;90918;-69
2021/12/30 05:27:48;;;;;;;61.58;48.55;;;18.20;69.80;;;;;;5010375;27;91614;-69
2021/12/30 05:30:15;;;;;;;61.58;48.42;;;18.20;69.70;;;;;;5008641;27;90350;-70
2021/12/30 05:32:41;;;;;;;62.40;48.85;;;18.30;69.80;;;;;;5003960;27;90711;-69
2021/12/30 05:35:09;;;;;;;61.95;48.75;;;18.30;69.60;;;;;;5009641;27;90284;-71
2021/12/30 05:37:35;;;;;;;62.17;48.80;;;18.40;69.60;;;;;;5012285;27;89957;-69
2021/12/30 05:40:01;;;;;;;62.10;48.65;;;18.50;69.50;;;;;;5015314;27;90390;-69
2021/12/30 05:42:26;;;;;;;62.42;48.53;;;18.50;69.40;;;;;;5007477;27;93031;-69
2021/12/30 05:44:53;;;;;;;62.42;48.90;;;18.60;69.10;;;;;;5011024;27;91083;-69
2021/12/30 05:47:20;;;;;;;62.92;48.95;;;18.70;68.90;;;;;;5011438;27;90726;-69
2021/12/30 05:49:46;;;;;;;62.78;48.85;;;18.80;68.80;;;;;;5010963;27;90122;-68
2021/12/30 05:52:12;;;;;;;62.08;48.70;;;18.80;68.60;;;;;;4995435;27;94292;-69
2021/12/30 05:54:39;;;;;;;62.78;48.88;;;18.90;68.30;;;;;;5012076;27;90000;-69
2021/12/30 05:57:05;;;;;;;62.25;48.83;;;19.00;68.20;;;;;;5006241;27;90084;-69
2021/12/30 05:59:30;;;;;;;62.40;48.83;;;19.00;68.00;;;;;;5012744;27;90332;-69
2021/12/30 06:01:56;;;;;;;62.30;48.78;;;19.00;67.80;;;;;;5008904;27;89472;-69
2021/12/30 06:04:21;;;;;;;63.05;48.83;;;19.10;67.50;;;;;;5010758;27;91438;-69
2021/12/30 06:06:47;;;;;;;63.03;48.88;;;19.20;67.50;;;;;;5002876;27;92260;-69
2021/12/30 06:09:13;;;;;;;62.95;48.78;;;19.20;67.40;;;;;;5007842;27;92326;-69
2021/12/30 06:11:38;;;;;;;63.35;48.83;;;19.20;67.10;;;;;;5005517;27;90580;-69
2021/12/30 06:14:04;;;;;;;62.38;48.75;;;19.30;67.00;;;;;;5013288;27;90631;-69
2021/12/30 06:16:31;;;;;;;62.30;48.80;;;19.30;67.00;;;;;;5014162;27;91592;-69
2021/12/30 06:18:59;;;;;;;62.70;48.72;;;19.30;66.80;;;;;;5008897;27;91206;-70
2021/12/30 06:21:25;;;;;;;63.33;48.88;;;19.40;66.70;;;;;;5002672;27;91206;-69
2021/12/30 06:23:51;;;;;;;62.30;48.75;;;19.40;66.80;;;;;;5010444;27;90640;-69
2021/12/30 06:26:16;;;;;;;64.03;48.95;;;19.40;66.60;;;;;;5011537;27;89927;-69
2021/12/30 06:28:42;;;;;;;62.65;48.88;;;19.40;66.40;;;;;;5009460;27;90927;-69
2021/12/30 06:31:08;;;;;;;62.92;48.80;;;19.40;66.50;;;;;;4999942;27;90550;-69
2021/12/30 06:33:34;;;;;;;62.53;48.75;;;19.40;66.30;;;;;;5001897;27;91266;-68
2021/12/30 06:35:59;;;;;;;62.80;48.70;;;19.40;66.20;;;;;;5001897;27;90532;-69
2021/12/30 06:38:25;;;;;;;62.58;48.85;;;19.40;66.20;;;;;;5010400;27;89862;-69
2021/12/30 06:40:50;;;;;;;63.03;48.95;;;19.40;66.20;;;;;;5009603;27;89874;-69
2021/12/30 06:43:16;;;;;;;63.17;48.88;;;19.50;66.20;;;;;;5002709;27;91020;-69
2021/12/30 06:45:44;;;;;;;62.28;48.78;;;19.40;66.20;;;;;;5003956;27;95999;-69
2021/12/30 06:48:14;;;;;;;62.65;48.90;;;19.40;66.20;;;;;;5005656;27;90789;-69
2021/12/30 06:50:40;;;;;;;64.20;48.97;;;19.40;66.20;;;;;;5006644;27;90575;-68
2021/12/30 06:53:05;;;;;;;62.38;48.78;;;19.40;66.20;;;;;;5008014;27;91138;-69
2021/12/30 06:55:31;;;;;;;63.58;48.90;;;19.40;66.20;;;;;;5001743;27;90443;-68
2021/12/30 06:57:56;;;;;;;63.55;48.80;;;19.40;66.20;;;;;;5008138;27;91448;-69
2021/12/30 07:00:22;;;;;;;64.97;48.92;;;19.40;66.20;;;;;;5008510;27;90603;-68
2021/12/30 07:02:48;;;;;;;62.40;48.70;;;19.40;66.30;;;;;;5012954;27;90827;-68
2021/12/30 07:05:14;;;;;;;64.03;48.92;;;19.40;66.30;;;;;;5005494;27;90351;-69
2021/12/30 07:07:40;;;;;;;62.70;48.85;;;19.40;66.30;;;;;;5002235;27;90282;-66
2021/12/30 07:10:06;;;;;;;62.70;48.95;;;19.40;66.30;;;;;;5003521;27;92444;-69
2021/12/30 07:12:32;;;;;;;63.42;48.95;;;19.40;66.20;;;;;;5010015;27;90152;-68
2021/12/30 07:14:57;;;;;;;62.70;48.92;;;19.40;66.30;;;;;;5000454;27;91790;-68
2021/12/30 07:17:24;;;;;;;65.60;49.30;;;19.40;66.20;;;;;;5013752;27;89806;-69
2021/12/30 07:19:50;;;;;;;63.13;49.13;;;19.40;66.30;;;;;;4985219;27;89759;-68
2021/12/30 07:22:15;;;;;;;63.55;49.05;;;19.40;66.30;;;;;;5007083;27;91206;-68
2021/12/30 07:24:41;;;;;;;64.85;49.13;;;19.40;66.30;;;;;;5005320;27;97525;-68
2021/12/30 07:27:07;;;;;;;63.83;49.15;;;19.40;66.50;;;;;;5001473;27;89972;-68
2021/12/30 07:29:32;;;;;;;64.28;49.03;;;19.40;66.40;;;;;;5007413;27;90106;-68
2021/12/30 07:31:58;;;;;;;63.97;49.00;;;19.40;66.60;;;;;;5014397;27;89997;-69
2021/12/30 07:34:23;;;;;;;63.30;49.20;;;19.40;66.70;;;;;;5002413;27;96555;-69
2021/12/30 07:36:49;;;;;;;63.85;49.17;;;19.30;66.80;;;;;;5008068;27;92536;-69
2021/12/30 07:39:15;;;;;;;65.60;48.92;;;19.30;66.80;;;;;;5007888;27;89863;-68
2021/12/30 07:41:40;;;;;;;65.55;48.95;;;19.30;67.00;;;;;;5005266;27;90960;-68
2021/12/30 07:44:06;;;;;;;63.60;49.13;;;19.30;67.20;;;;;;4998488;27;91221;-68
2021/12/30 07:46:32;;;;;;;64.20;49.03;;;19.30;67.40;;;;;;5012994;27;91367;-67
2021/12/30 07:48:57;;;;;;;68.60;49.03;;;19.30;67.50;;;;;;4993719;27;90269;-69
2021/12/30 07:51:23;;;;;;;66.32;49.30;;;19.30;67.50;;;;;;4997746;27;91297;-68
2021/12/30 07:53:49;;;;;;;65.28;49.35;;;19.30;67.70;;;;;;5008828;27;90899;-69
2021/12/30 07:56:14;;;;;;;64.57;49.17;;;19.30;67.90;;;;;;5002188;27;89654;-68
2021/12/30 07:58:40;;;;;;;65.65;49.40;;;19.20;68.70;;;;;;4989889;27;90196;-70
2021/12/30 08:01:06;;;;;;;67.38;49.25;;;19.20;68.10;;;;;;5004937;27;91172;-69
2021/12/30 08:03:32;;;;;;;65.20;49.15;;;19.20;68.10;;;;;;4997131;27;95224;-69
2021/12/30 08:05:57;;;;;;;65.82;49.45;;;19.20;68.10;;;;;;5003727;27;90469;-69
2021/12/30 08:08:23;;;;;;;66.63;49.45;;;19.20;68.10;;;;;;5003749;27;89681;-69
2021/12/30 08:10:49;;;;;;;63.92;49.30;;;19.20;68.10;;;;;;5005603;27;90575;-69
2021/12/30 08:13:14;;;;;;;65.45;49.30;;;19.20;68.10;;;;;;5006735;27;91853;-69
2021/12/30 08:15:42;;;;;;;64.25;48.95;;;19.20;68.10;;;;;;5005014;27;90110;-69
2021/12/30 08:18:09;;;;;;;68.15;49.35;;;19.20;68.20;;;;;;5008307;27;90643;-68
2021/12/30 08:20:34;;;;;;;65.40;49.38;;;19.20;68.20;;;;;;4987844;27;92473;-69
2021/12/30 08:23:00;;;;;;;63.42;49.22;;;19.20;68.20;;;;;;5005272;27;90365;-69
2021/12/30 08:25:26;;;;;;;64.57;49.15;;;19.20;68.30;;;;;;5003320;27;90279;-69
2021/12/30 08:27:52;;;;;;;67.38;49.25;;;19.20;68.30;;;;;;5007354;27;91826;-69
2021/12/30 08:30:19;;;;;;;64.50;49.25;;;19.20;68.30;;;;;;5005305;27;90240;-67
2021/12/30 08:32:45;;;;;;;67.05;49.10;;;19.20;68.30;;;;;;5006877;27;89656;-69
2021/12/30 08:35:13;;;;;;;64.20;49.13;;;19.20;68.30;;;;;;4981990;27;92237;-69
2021/12/30 08:37:39;;;;;;;66.60;49.45;;;19.20;68.30;;;;;;4982568;27;90428;-69
2021/12/30 08:40:08;;;;;;;66.88;49.78;;;19.20;68.30;;;;;;4996605;27;90135;-69
2021/12/30 08:42:34;;;;;;;64.45;49.53;;;19.20;68.30;;;;;;5006377;27;91437;-69
2021/12/30 08:45:01;;;;;;;65.60;49.53;;;19.20;68.30;;;;;;5008901;27;90117;-69
2021/12/30 08:47:28;;;;;;;66.25;49.65;;;19.10;68.20;;;;;;5010798;27;96599;-69
2021/12/30 08:49:54;;;;;;;65.43;49.17;;;19.20;68.30;;;;;;5000420;27;90977;-69
2021/12/30 08:52:23;;;;;;;66.55;49.53;;;19.10;68.30;;;;;;5010973;27;90751;-68
2021/12/30 08:54:50;;;;;;;67.25;49.50;;;19.10;68.30;;;;;;5012197;27;90059;-69
2021/12/30 08:57:17;;;;;;;66.57;49.65;;;19.10;68.30;;;;;;4988412;27;90861;-68
2021/12/30 08:59:43;;;;;;;65.53;49.65;;;19.10;68.40;;;;;;5010872;27;91292;-71
2021/12/30 09:02:10;;;;;;;70.88;49.72;;;19.10;68.60;;;;;;5011219;27;92726;-69
2021/12/30 09:04:36;;;;;;;71.25;49.53;;;19.10;68.70;;;;;;5007495;27;91736;-69
2021/12/30 09:07:03;;;;;;;64.82;49.42;;;19.10;68.90;;;;;;5005242;27;90096;-67
2021/12/30 09:09:29;;;;;;;64.53;49.47;;;19.10;69.00;;;;;;5006985;27;91027;-69
2021/12/30 09:11:55;;;;;;;66.82;49.25;;;19.10;69.10;;;;;;5014894;27;90148;-69
2021/12/30 09:14:21;;;;;;;67.47;49.75;;;19.10;69.00;;;;;;5009583;27;94997;-68
2021/12/30 09:16:48;;;;;;;66.70;49.40;;;19.10;69.10;;;;;;5008360;27;94132;-69
2021/12/30 09:19:15;;;;;;;67.45;50.08;;;19.10;69.10;;;;;;5007814;27;90008;-68
2021/12/30 09:21:41;;;;;;;69.43;50.47;;;19.10;69.20;;;;;;5002495;27;91127;-68
2021/12/30 09:24:08;;;;;;;69.75;50.25;;;19.10;69.20;;;;;;5013849;27;91992;-68
2021/12/30 09:26:34;;;;;;;70.88;50.33;;;19.10;68.90;;;;;;4990797;27;90558;-67
2021/12/30 09:29:00;;;;;;;67.97;50.53;;;19.10;68.80;;;;;;5020762;27;90979;-69
2021/12/30 09:31:28;;;;;;;67.88;50.38;;;19.10;68.70;;;;;;5011778;27;90425;-68
2021/12/30 09:33:55;;;;;;;67.88;50.22;;;19.10;68.60;;;;;;4996347;27;91534;-68
2021/12/30 09:36:22;;;;;;;69.20;50.03;;;19.20;68.60;;;;;;5005543;27;89731;-70
2021/12/30 09:38:48;;;;;;;69.35;50.50;;;19.10;68.40;;;;;;5001307;27;90381;-69
2021/12/30 09:41:14;;;;;;;70.13;50.58;;;19.10;68.30;;;;;;5010436;27;90036;-69
2021/12/30 09:43:39;;;;;;;69.70;50.65;;;19.10;68.20;;;;;;5018958;27;90233;-69
2021/12/30 09:46:05;;;;;;;68.75;50.40;;;19.20;68.30;;;;;;5000940;27;89555;-70
2021/12/30 09:48:31;;;;;;;71.55;50.85;;;19.20;68.20;;;;;;4971666;27;93022;-70
2021/12/30 09:50:58;;;;;;;69.72;50.67;;;19.30;69.20;;;;;;5006904;27;90550;-70
2021/12/30 09:53:25;;;;;;;69.65;51.22;;;19.40;69.10;;;;;;5001883;27;96935;-72
2021/12/30 09:55:55;;;;;;;71.15;51.20;;;19.60;69.30;;;;;;4991473;27;92234;-70
2021/12/30 09:58:21;;;;;;;72.15;51.17;;;19.70;69.30;;;;;;4975443;27;92381;-69
2021/12/30 10:00:48;;;;;;;73.50;51.10;;;19.80;68.40;;;;;;5004537;27;91471;-69
2021/12/30 10:03:14;;;;;;;70.20;51.25;;;19.90;67.90;;;;;;5002063;27;90535;-70
2021/12/30 10:05:41;;;;;;;73.60;51.40;;;20.00;67.50;;;;;;4982055;27;89145;-70
2021/12/30 10:08:27;;;;;;;73.57;51.47;;;20.10;67.10;;;;;;4999530;27;90888;-71
2021/12/30 10:10:56;;;;;;;76.22;51.40;;;20.20;66.60;;;;;;5008414;27;90621;-70
2021/12/30 10:13:27;;;;;;;72.30;51.45;;;20.20;66.20;;;;;;4991748;27;91542;-70
2021/12/30 10:15:54;;;;;;;;;;;20.30;66.20;;;;;;5013483;27;89490;-72
2021/12/30 10:18:20;;;;;;;72.07;51.38;;;20.30;66.70;;;;;;5011586;27;89368;-72
2021/12/30 10:20:47;;;;;;;79.13;51.42;;;20.40;66.80;;;;;;4994111;27;91840;-72
2021/12/30 10:23:24;;;;;;;78.70;52.13;;;20.50;66.90;;;;;;5006826;27;91767;-70
2021/12/30 10:25:58;;;;;;;75.00;51.47;;;20.50;66.50;;;;;;5009920;27;90884;-69
2021/12/30 10:28:25;;;;;;;78.60;52.40;;;20.50;66.10;;;;;;5010558;27;90974;-69
2021/12/30 10:31:13;;;;;;;73.90;51.72;;;20.60;65.90;;;;;;5002052;27;90008;-69
2021/12/30 10:34:00;;;;;;;73.45;51.78;;;20.60;65.50;;;;;;5010093;27;89628;-69
2021/12/30 10:36:29;;;;;;;78.97;51.92;;;20.60;65.50;;;;;;5009883;27;93028;-70
2021/12/30 10:39:14;;;;;;;76.18;52.10;;;20.70;65.50;;;;;;5005602;27;93133;-70
2021/12/30 10:41:40;;;;;;;73.13;52.03;;;20.70;65.50;;;;;;5010585;27;91065;-70
2021/12/30 10:44:06;;;;;;;80.97;51.67;;;20.70;65.60;;;;;;4994460;27;90375;-70
2021/12/30 10:46:32;;;;;;;82.03;52.08;;;20.70;65.50;;;;;;5004364;27;93711;-70
2021/12/30 10:49:06;;;;;;;75.95;51.85;;;20.80;65.40;;;;;;5010064;27;90075;-70
2021/12/30 10:51:33;;;;;;;71.25;51.83;;;20.80;65.30;;;;;;5008053;27;92102;-70
2021/12/30 10:54:09;;;;;;;78.40;51.75;;;20.80;65.20;;;;;;5004814;27;91949;-70
2021/12/30 10:56:38;;;;;;;74.97;52.10;;;20.80;65.10;;;;;;5006444;27;91012;-73
2021/12/30 10:59:08;;;;;;;75.25;51.95;;;20.80;65.20;;;;;;5015185;27;90601;-72
2021/12/30 11:01:43;;;;;;;79.60;52.25;;;20.80;65.20;;;;;;5014208;27;91675;-73
2021/12/30 11:04:09;;;;;;;78.43;52.00;;;20.80;65.30;;;;;;5013277;27;91366;-73
2021/12/30 11:06:36;;;;;;;73.13;51.75;;;20.80;65.50;;;;;;5017506;27;90438;-73
2021/12/30 11:09:22;;;;;;;76.05;51.80;;;20.80;65.00;;;;;;4999310;27;92928;-74
2021/12/30 11:11:50;;;;;;;78.20;51.88;;;20.80;65.00;;;;;;5006505;27;91235;-73
2021/12/30 11:14:24;;;;;;;79.03;52.13;;;20.80;64.70;;;;;;4980770;27;95750;-74
2021/12/30 11:16:57;;;;;;;77.90;52.03;;;20.80;64.60;;;;;;5002747;27;91016;-73
2021/12/30 11:19:23;;;;;;;74.75;51.92;;;20.80;64.50;;;;;;5005225;27;90081;-72
2021/12/30 11:21:51;;;;;;;77.50;51.67;;;20.80;64.70;;;;;;5009170;27;96099;-71
2021/12/30 11:24:21;;;;;;;73.80;52.13;;;20.80;64.50;;;;;;4985077;27;90634;-72
2021/12/30 11:26:53;;;;;;;73.05;51.88;;;20.80;64.20;;;;;;5002177;27;90194;-71
2021/12/30 11:29:18;;;;;;;73.25;51.75;;;20.80;64.20;;;;;;4991572;27;91904;-71
2021/12/30 11:31:45;;;;;;;76.25;51.90;;;20.80;64.50;;;;;;5006884;27;91657;-72
2021/12/30 11:34:12;;;;;;;74.63;52.08;;;20.70;64.30;;;;;;4992042;27;95003;-72
2021/12/30 11:36:38;;;;;;;77.43;51.85;;;20.70;64.30;;;;;;5010513;27;90669;-72
2021/12/30 11:39:12;;;;;;;72.20;51.72;;;20.70;64.30;;;;;;4993955;27;93404;-72
2021/12/30 11:41:40;;;;;;;76.78;51.55;;;20.60;64.30;;;;;;5008194;27;92073;-72
2021/12/30 11:44:06;;;;;;;73.72;51.63;;;20.60;64.20;;;;;;5013367;27;90181;-72
2021/12/30 11:46:46;;;;;;;74.18;51.75;;;20.60;64.20;;;;;;5018640;27;90003;-71
2021/12/30 11:49:14;;;;;;;70.78;51.17;;;20.60;64.20;;;;;;4995513;27;91413;-72
2021/12/30 11:51:49;;;;;;;72.55;51.72;;;20.50;64.80;;;;;;4969362;27;92474;-72
2021/12/30 11:54:32;;;;;;;71.15;51.15;;;20.50;64.10;;;;;;5011259;27;91386;-72
2021/12/30 11:57:25;;;;;;;72.85;51.47;;;20.50;64.10;;;;;;5014586;27;89843;-72
2021/12/30 11:59:52;;;;;;;70.25;51.45;;;20.50;64.00;;;;;;5009964;27;90139;-71
2021/12/30 12:02:32;;;;;;;74.38;51.50;;;20.50;64.00;;;;;;5011819;27;90776;-71
2021/12/30 12:04:58;;;;;;;69.80;51.20;;;20.40;63.90;;;;;;5005183;27;90080;-72
2021/12/30 12:07:24;;;;;;;70.93;51.20;;;20.40;63.90;;;;;;4973301;28;91324;-72
2021/12/30 12:09:50;;;;;;;73.05;51.45;;;20.40;63.90;;;;;;4992404;27;93218;-71
2021/12/30 12:12:35;;;;;;;68.18;50.70;;;20.40;63.90;;;;;;5007949;27;89955;-71
2021/12/30 12:15:02;;;;;;;71.47;51.35;;;20.40;63.80;;;;;;5007882;27;89508;-72
2021/12/30 12:17:38;;;;;;;70.03;51.33;;;20.40;63.80;;;;;;5010726;27;90386;-71
2021/12/30 12:20:20;;;;;;;69.72;51.25;;;20.40;64.00;;;;;;4999289;27;92815;-71
2021/12/30 12:22:46;;;;;;;67.78;51.03;;;20.40;63.70;;;;;;4992111;27;94817;-72
2021/12/30 12:25:19;;;;;;;71.95;51.13;;;20.40;63.80;;;;;;5007289;27;90631;-72
2021/12/30 12:27:51;;;;;;;68.70;51.22;;;20.30;63.70;;;;;;4987497;27;91892;-72
2021/12/30 12:30:23;;;;;;;67.75;50.85;;;20.30;63.70;;;;;;5008971;27;92691;-71